createdAt,value
2018-07-12T00:02:04.236Z,99.03
2018-07-12T00:04:31.288Z,98.48
2018-07-12T00:06:58.439Z,97.76
2018-07-12T00:09:25.501Z,97.35
2018-07-12T00:11:52.592Z,97.45
2018-07-12T00:14:19.636Z,97.72
2018-07-12T00:16:47.031Z,97.13
2018-07-12T00:19:14.433Z,97.78
2018-07-12T00:21:41.537Z,98.14
2018-07-12T00:24:09.047Z,98.10
2018-07-12T00:26:36.151Z,98.54
2018-07-12T00:29:03.195Z,98.99
2018-07-12T00:31:30.332Z,99.09
2018-07-12T00:33:57.389Z,100.00
2018-07-12T00:36:24.906Z,99.54
2018-07-12T00:38:51.935Z,99.37
2018-07-12T00:41:19.064Z,99.40
2018-07-12T00:43:46.155Z,99.90
2018-07-12T00:46:13.206Z,100.00
2018-07-12T00:48:52.099Z,99.55
2018-07-12T00:51:43.915Z,99.30
2018-07-12T00:54:11.025Z,99.01
2018-07-12T00:56:38.128Z,99.05
2018-07-12T00:59:05.167Z,99.33
2018-07-12T01:01:32.677Z,99.64
2018-07-12T01:03:59.755Z,99.42
2018-07-12T01:06:26.872Z,99.78
2018-07-12T01:08:54.118Z,100.00
2018-07-12T01:11:21.173Z,100.00
2018-07-12T01:13:48.205Z,100.00
2018-07-12T01:16:15.251Z,99.92
2018-07-12T01:18:42.846Z,99.72
2018-07-12T01:21:09.919Z,99.34
2018-07-12T01:23:37.023Z,98.67
2018-07-12T01:26:04.442Z,99.14
2018-07-12T01:28:32.099Z,99.84
2018-07-12T01:30:59.272Z,99.87
2018-07-12T01:33:26.361Z,100.00
2018-07-12T01:35:53.402Z,99.90
2018-07-12T01:38:20.481Z,100.00
2018-07-12T01:40:47.543Z,100.00
2018-07-12T01:43:14.872Z,100.00
2018-07-12T01:45:48.438Z,100.00
2018-07-12T01:48:15.525Z,100.00
2018-07-12T01:50:42.608Z,100.00
2018-07-12T01:53:10.152Z,100.00
2018-07-12T01:55:37.262Z,100.00
2018-07-12T01:58:04.309Z,100.00
2018-07-12T02:00:31.456Z,100.00
2018-07-12T02:02:58.528Z,100.00
2018-07-12T02:05:25.650Z,100.00
2018-07-12T02:07:53.234Z,100.00
2018-07-12T02:13:18.979Z,100.00
2018-07-12T02:15:45.960Z,100.00
2018-07-12T02:18:13.075Z,100.00
2018-07-12T02:20:40.140Z,100.00
2018-07-12T02:23:07.233Z,100.00
2018-07-12T02:28:24.903Z,100.00
2018-07-12T02:30:51.944Z,100.00
2018-07-12T02:33:18.992Z,100.00
2018-07-12T02:35:46.086Z,100.00
2018-07-12T02:38:13.124Z,100.00
2018-07-12T02:40:40.656Z,100.00
2018-07-12T02:43:07.745Z,100.00
2018-07-12T02:45:40.911Z,100.00
2018-07-12T02:48:08.004Z,100.00
2018-07-12T02:50:35.095Z,100.00
2018-07-12T02:53:02.476Z,100.00
2018-07-12T02:55:29.517Z,100.00
2018-07-12T02:57:56.565Z,100.00
2018-07-12T03:00:23.690Z,100.00
2018-07-12T03:02:50.719Z,100.00
2018-07-12T03:05:17.939Z,100.00
2018-07-12T03:07:44.964Z,100.00
2018-07-12T03:10:12.003Z,99.65
2018-07-12T03:12:39.068Z,99.44
2018-07-12T03:15:06.105Z,99.24
2018-07-12T03:17:33.184Z,99.70
2018-07-12T03:20:00.421Z,100.00
2018-07-12T03:22:27.768Z,99.66
2018-07-12T03:24:54.860Z,99.74
2018-07-12T03:27:21.948Z,99.82
2018-07-12T03:29:49.028Z,99.91
2018-07-12T03:32:16.117Z,100.00
2018-07-12T03:34:43.154Z,100.00
2018-07-12T03:37:10.224Z,100.00
2018-07-12T03:39:37.250Z,100.00
2018-07-12T03:42:04.357Z,100.00
2018-07-12T03:44:31.442Z,100.00
2018-07-12T03:46:58.482Z,100.00
2018-07-12T03:49:25.551Z,100.00
2018-07-12T03:51:52.581Z,99.92
2018-07-12T03:54:20.145Z,99.84
2018-07-12T03:56:47.174Z,99.85
2018-07-12T03:59:14.252Z,100.00
2018-07-12T04:01:41.711Z,100.00
2018-07-12T04:04:08.739Z,100.00
2018-07-12T04:06:36.271Z,99.46
2018-07-12T04:09:04.461Z,99.67
2018-07-12T04:11:31.494Z,99.78
2018-07-12T04:13:58.705Z,99.81
2018-07-12T04:16:25.735Z,99.68
2018-07-12T04:18:53.307Z,99.92
2018-07-12T04:21:20.645Z,99.55
2018-07-12T04:23:47.676Z,99.33
2018-07-12T04:26:14.746Z,99.41
2018-07-12T04:28:48.328Z,99.25
2018-07-12T04:31:15.467Z,99.65
2018-07-12T04:33:42.510Z,99.22
2018-07-12T04:36:09.541Z,99.37
2018-07-12T04:38:36.609Z,99.59
2018-07-12T04:41:03.640Z,99.23
2018-07-12T04:43:30.766Z,99.24
2018-07-12T04:45:57.857Z,100.00
2018-07-12T04:48:24.928Z,99.53
2018-07-12T04:50:52.013Z,99.71
2018-07-12T04:53:19.054Z,100.00
2018-07-12T04:55:46.184Z,99.36
2018-07-12T04:58:13.322Z,100.00
2018-07-12T05:00:40.427Z,100.00
2018-07-12T05:03:07.474Z,99.84
2018-07-12T05:05:34.555Z,99.69
2018-07-12T05:08:02.054Z,99.85
2018-07-12T05:10:29.127Z,100.00
2018-07-12T05:12:56.165Z,100.00
2018-07-12T05:15:23.244Z,99.84
2018-07-12T05:17:50.300Z,100.00
2018-07-12T05:20:17.442Z,99.93
2018-07-12T05:22:45.093Z,100.00
2018-07-12T05:25:12.149Z,100.00
2018-07-12T05:27:39.232Z,100.00
2018-07-12T05:30:06.260Z,100.00
2018-07-12T05:32:33.354Z,99.77
2018-07-12T05:35:00.540Z,100.00
2018-07-12T05:37:29.458Z,100.00
2018-07-12T05:39:58.185Z,100.00
2018-07-12T05:42:31.515Z,100.00
2018-07-12T05:45:00.444Z,100.00
2018-07-12T05:47:29.509Z,100.00
2018-07-12T05:49:58.420Z,99.87
2018-07-12T05:52:27.150Z,99.93
2018-07-12T05:54:56.082Z,99.90
2018-07-12T05:57:25.052Z,99.91
2018-07-12T05:59:59.705Z,100.00
2018-07-12T06:02:28.976Z,99.94
2018-07-12T06:04:57.853Z,100.00
2018-07-12T06:07:30.828Z,99.92
2018-07-12T06:09:59.931Z,99.54
2018-07-12T06:12:28.877Z,99.53
2018-07-12T06:14:57.667Z,99.45
2018-07-12T06:17:26.611Z,98.94
2018-07-12T06:19:55.490Z,99.22
2018-07-12T06:22:24.408Z,98.89
2018-07-12T06:24:53.488Z,98.54
2018-07-12T06:27:22.388Z,97.79
2018-07-12T06:29:51.360Z,97.51
2018-07-12T06:32:20.575Z,96.85
2018-07-12T06:34:49.520Z,95.92
2018-07-12T06:37:18.512Z,95.49
2018-07-12T06:39:47.315Z,94.91
2018-07-12T06:42:16.273Z,93.76
2018-07-12T06:44:45.617Z,91.95
2018-07-12T06:47:14.347Z,91.37
2018-07-12T06:49:43.249Z,88.50
2018-07-12T06:52:12.215Z,86.53
2018-07-12T06:54:41.106Z,84.64
2018-07-12T06:57:09.869Z,83.42
2018-07-12T06:59:38.788Z,83.42
2018-07-12T07:02:07.852Z,82.34
2018-07-12T07:04:36.728Z,83.14
2018-07-12T07:07:05.852Z,82.80
2018-07-12T07:09:34.761Z,83.23
2018-07-12T07:12:03.701Z,82.11
2018-07-12T07:14:32.656Z,82.34
2018-07-12T07:17:01.564Z,80.31
2018-07-12T07:19:30.553Z,78.35
2018-07-12T07:21:59.459Z,77.35
2018-07-12T07:24:28.462Z,75.12
2018-07-12T07:26:57.413Z,74.33
2018-07-12T07:29:26.127Z,76.27
2018-07-12T07:31:55.089Z,74.39
2018-07-12T07:34:23.981Z,75.69
2018-07-12T07:36:52.721Z,73.79
2018-07-12T07:39:21.751Z,72.14
2018-07-12T07:41:50.625Z,71.19
2018-07-12T07:44:19.555Z,70.11
2018-07-12T07:46:48.466Z,71.90
2018-07-12T07:49:17.464Z,71.67
2018-07-12T07:51:46.180Z,72.69
2018-07-12T07:54:15.379Z,70.53
2018-07-12T07:56:44.186Z,69.56
2018-07-12T07:59:13.052Z,70.99
2018-07-12T08:01:41.979Z,69.71
2018-07-12T08:04:10.848Z,69.27
2018-07-12T08:06:39.782Z,67.52
2018-07-12T08:09:08.787Z,67.18
2018-07-12T08:11:37.521Z,67.00
2018-07-12T08:14:06.460Z,66.17
2018-07-12T08:16:35.176Z,65.20
2018-07-12T08:19:04.165Z,64.89
2018-07-12T08:21:33.121Z,64.41
2018-07-12T08:24:02.037Z,62.89
2018-07-12T08:26:30.915Z,61.52
2018-07-12T08:28:59.706Z,60.96
2018-07-12T08:31:28.606Z,62.20
2018-07-12T08:33:57.550Z,60.64
2018-07-12T08:36:26.502Z,61.35
2018-07-12T08:38:55.275Z,62.17
2018-07-12T08:41:24.195Z,59.54
2018-07-12T08:43:53.140Z,59.27
2018-07-12T08:46:22.148Z,58.92
2018-07-12T08:48:51.072Z,55.63
2018-07-12T08:51:19.987Z,54.47
2018-07-12T08:53:48.917Z,57.48
2018-07-12T08:56:17.793Z,58.43
2018-07-12T08:58:46.829Z,57.82
2018-07-12T09:01:15.530Z,56.36
2018-07-12T09:03:44.227Z,57.24
2018-07-12T09:06:13.165Z,55.77
2018-07-12T09:08:42.185Z,54.86
2018-07-12T09:11:11.589Z,52.38
2018-07-12T09:13:40.645Z,52.59
2018-07-12T09:16:09.634Z,51.78
2018-07-12T09:18:38.568Z,52.21
2018-07-12T09:21:07.472Z,51.77
2018-07-12T09:23:36.560Z,51.22
2018-07-12T09:26:05.496Z,51.24
2018-07-12T09:28:34.384Z,52.70
2018-07-12T09:31:03.316Z,52.42
2018-07-12T09:33:32.187Z,49.99
2018-07-12T09:36:01.002Z,48.48
2018-07-12T09:38:50.499Z,53.59
2018-07-12T09:41:20.131Z,52.40
2018-07-12T09:43:49.603Z,51.64
2018-07-12T09:46:18.701Z,50.54
2018-07-12T09:48:48.950Z,49.58
2018-07-12T09:51:17.783Z,50.79
2018-07-12T09:53:47.383Z,53.11
2018-07-12T09:56:16.307Z,52.27
2018-07-12T09:58:45.319Z,52.46
2018-07-12T10:01:20.230Z,51.41
2018-07-12T10:03:51.251Z,50.18
2018-07-12T10:06:25.558Z,51.86
2018-07-12T10:08:55.981Z,50.45
2018-07-12T10:11:30.194Z,51.81
2018-07-12T10:14:04.643Z,50.67
2018-07-12T10:16:38.902Z,49.79
2018-07-12T10:19:07.715Z,49.64
2018-07-12T10:21:36.536Z,49.24
2018-07-12T10:24:05.370Z,48.25
2018-07-12T10:26:34.231Z,48.00
2018-07-12T10:29:03.024Z,40.57
2018-07-12T10:31:31.670Z,47.13
2018-07-12T10:34:00.500Z,47.28
2018-07-12T10:36:29.273Z,46.01
2018-07-12T10:38:58.395Z,44.74
2018-07-12T10:41:27.178Z,43.27
2018-07-12T10:43:55.885Z,43.63
2018-07-12T10:46:24.703Z,45.41
2018-07-12T10:48:53.492Z,44.20
2018-07-12T10:51:22.139Z,45.30
2018-07-12T10:53:50.886Z,45.27
2018-07-12T10:56:19.738Z,46.12
2018-07-12T10:58:48.701Z,47.31
2018-07-12T11:01:17.440Z,47.15
2018-07-12T11:03:46.297Z,49.64
2018-07-12T11:06:15.075Z,52.27
2018-07-12T11:08:43.717Z,53.00
2018-07-12T11:11:12.663Z,53.49
2018-07-12T11:13:49.357Z,53.46
2018-07-12T11:16:18.191Z,53.87
2018-07-12T11:18:47.388Z,52.75
2018-07-12T11:21:16.238Z,52.35
2018-07-12T11:23:45.217Z,51.28
2018-07-12T11:26:13.994Z,51.07
2018-07-12T11:28:43.155Z,49.71
2018-07-12T11:31:12.024Z,48.48
2018-07-12T11:33:42.732Z,48.22
2018-07-12T11:36:11.930Z,46.55
2018-07-12T11:38:42.056Z,46.76
2018-07-12T11:41:11.221Z,46.12
2018-07-12T11:43:40.085Z,45.30
2018-07-12T11:46:09.954Z,45.15
2018-07-12T11:48:39.936Z,42.41
2018-07-12T11:51:08.829Z,45.28
2018-07-12T11:53:37.702Z,46.56
2018-07-12T11:56:06.650Z,45.69
2018-07-12T11:58:35.463Z,44.62
2018-07-12T12:01:04.347Z,43.93
2018-07-12T12:03:33.241Z,44.29
2018-07-12T12:06:02.071Z,43.99
2018-07-12T12:08:30.990Z,45.26
2018-07-12T12:10:59.806Z,45.08
2018-07-12T12:13:28.626Z,43.87
2018-07-12T12:15:57.431Z,44.89
2018-07-12T12:18:26.244Z,45.87
2018-07-12T12:20:55.070Z,46.27
2018-07-12T12:23:23.894Z,46.32
2018-07-12T12:25:52.717Z,47.71
2018-07-12T12:28:21.825Z,48.67
2018-07-12T12:30:50.597Z,49.17
2018-07-12T12:33:19.455Z,49.18
2018-07-12T12:35:48.257Z,49.29
2018-07-12T12:38:17.080Z,48.16
2018-07-12T12:40:45.886Z,48.87
2018-07-12T12:43:14.648Z,49.85
2018-07-12T12:45:49.508Z,48.94
2018-07-12T12:48:18.303Z,50.48
2018-07-12T12:50:47.543Z,50.56
2018-07-12T12:53:16.287Z,51.68
2018-07-12T12:55:45.136Z,50.78
2018-07-12T12:58:13.952Z,51.37
2018-07-12T13:00:42.755Z,49.60
2018-07-12T13:03:11.555Z,47.47
2018-07-12T13:05:40.343Z,48.71
2018-07-12T13:08:09.276Z,48.88
2018-07-12T13:10:38.016Z,49.10
2018-07-12T13:13:06.980Z,48.14
2018-07-12T13:15:35.824Z,47.10
2018-07-12T13:18:04.670Z,46.80
2018-07-12T13:20:33.540Z,47.34
2018-07-12T13:23:02.363Z,48.14
2018-07-12T13:25:31.199Z,48.54
2018-07-12T13:28:00.040Z,48.12
2018-07-12T13:30:28.848Z,46.92
2018-07-12T13:32:58.219Z,45.23
2018-07-12T13:35:27.005Z,45.70
2018-07-12T13:37:55.765Z,46.47
2018-07-12T13:40:24.416Z,44.65
2018-07-12T13:42:53.335Z,43.10
2018-07-12T13:45:28.856Z,43.25
2018-07-12T13:47:57.656Z,44.53
2018-07-12T13:50:26.463Z,43.63
2018-07-12T13:52:55.295Z,42.18
2018-07-12T13:55:24.152Z,42.61
2018-07-12T13:57:53.013Z,41.94
2018-07-12T14:00:21.844Z,41.71
2018-07-12T14:02:50.913Z,41.45
2018-07-12T14:05:19.956Z,40.70
2018-07-12T14:07:48.758Z,41.15
2018-07-12T14:10:17.641Z,40.70
2018-07-12T14:12:46.658Z,39.75
2018-07-12T14:15:15.462Z,40.03
2018-07-12T14:17:44.255Z,40.10
2018-07-12T14:20:13.406Z,39.98
2018-07-12T14:22:42.243Z,40.56
2018-07-12T14:25:11.034Z,41.67
2018-07-12T14:27:39.812Z,40.42
2018-07-12T14:30:08.631Z,41.75
2018-07-12T14:32:37.452Z,42.26
2018-07-12T14:35:06.404Z,42.45
2018-07-12T14:37:35.211Z,42.51
2018-07-12T14:40:04.015Z,42.55
2018-07-12T14:42:32.672Z,43.62
2018-07-12T14:45:01.559Z,44.01
2018-07-12T14:47:30.384Z,44.14
2018-07-12T14:49:59.040Z,44.27
2018-07-12T14:52:27.801Z,45.56
2018-07-12T14:54:56.567Z,45.16
2018-07-12T14:57:25.288Z,45.06
2018-07-12T14:59:54.056Z,46.96
2018-07-12T15:02:22.895Z,46.20
2018-07-12T15:04:51.691Z,47.29
2018-07-12T15:07:20.455Z,47.59
2018-07-12T15:09:49.319Z,47.58
2018-07-12T15:12:18.670Z,46.83
2018-07-12T15:14:47.508Z,46.76
2018-07-12T15:17:16.400Z,45.51
2018-07-12T15:19:45.180Z,43.53
2018-07-12T15:22:14.124Z,43.43
2018-07-12T15:24:43.004Z,44.13
2018-07-12T15:27:11.817Z,43.55
2018-07-12T15:29:40.620Z,44.99
2018-07-12T15:32:09.829Z,44.68
2018-07-12T15:34:38.627Z,43.99
2018-07-12T15:37:07.501Z,45.02
2018-07-12T15:39:36.243Z,46.50
2018-07-12T15:42:05.100Z,46.47
2018-07-12T15:44:33.690Z,46.58
2018-07-12T15:47:02.538Z,46.22
2018-07-12T15:49:31.389Z,47.00
2018-07-12T15:52:00.163Z,47.16
2018-07-12T15:54:28.941Z,47.00
2018-07-12T15:56:57.772Z,48.18
2018-07-12T15:59:26.578Z,48.73
2018-07-12T16:01:55.444Z,49.32
2018-07-12T16:04:24.010Z,49.44
2018-07-12T16:06:53.300Z,49.04
2018-07-12T16:09:21.927Z,47.85
2018-07-12T16:11:50.723Z,46.43
2018-07-12T16:14:19.527Z,46.71
2018-07-12T16:16:48.342Z,47.51
2018-07-12T16:19:17.099Z,47.37
2018-07-12T16:21:46.191Z,47.23
2018-07-12T16:24:15.052Z,45.93
2018-07-12T16:26:43.884Z,46.71
2018-07-12T16:29:13.896Z,45.52
2018-07-12T16:31:42.785Z,46.76
2018-07-12T16:34:11.580Z,48.00
2018-07-12T16:36:40.474Z,48.12
2018-07-12T16:39:09.314Z,47.27
2018-07-12T16:41:38.112Z,47.93
2018-07-12T16:44:06.974Z,48.49
2018-07-12T16:46:35.962Z,51.11
2018-07-12T16:49:04.871Z,49.93
2018-07-12T16:51:33.640Z,50.36
2018-07-12T16:54:02.472Z,51.46
2018-07-12T16:56:31.286Z,52.32
2018-07-12T16:59:00.132Z,52.73
2018-07-12T17:01:28.994Z,52.62
2018-07-12T17:03:57.787Z,52.95
2018-07-12T17:06:26.637Z,52.96
2018-07-12T17:08:55.432Z,52.63
2018-07-12T17:11:24.263Z,53.76
2018-07-12T17:13:53.192Z,54.54
2018-07-12T17:16:22.285Z,54.35
2018-07-12T17:18:51.060Z,54.22
2018-07-12T17:21:19.915Z,53.86
2018-07-12T17:23:48.798Z,54.26
2018-07-12T17:26:17.683Z,53.41
2018-07-12T17:28:46.424Z,53.41
2018-07-12T17:31:15.126Z,55.00
2018-07-12T17:33:43.958Z,53.80
2018-07-12T17:36:12.752Z,54.61
2018-07-12T17:38:41.906Z,51.27
2018-07-12T17:41:10.801Z,51.05
2018-07-12T17:43:39.524Z,52.21
2018-07-12T17:46:08.390Z,50.83
2018-07-12T17:48:37.180Z,50.75
2018-07-12T17:51:06.167Z,51.27
2018-07-12T17:53:34.960Z,51.19
2018-07-12T17:56:03.777Z,54.54
2018-07-12T17:58:32.602Z,53.90
2018-07-12T18:01:01.464Z,53.34
2018-07-12T18:03:30.376Z,55.64
2018-07-12T18:05:59.194Z,57.20
2018-07-12T18:08:27.979Z,57.51
2018-07-12T18:10:56.638Z,56.68
2018-07-12T18:13:25.456Z,53.67
2018-07-12T18:15:54.406Z,55.42
2018-07-12T18:18:23.140Z,56.24
2018-07-12T18:20:51.754Z,56.94
2018-07-12T18:23:20.621Z,58.65
2018-07-12T18:25:49.216Z,57.92
2018-07-12T18:28:18.129Z,58.94
2018-07-12T18:30:47.001Z,59.38
2018-07-12T18:33:15.936Z,59.75
2018-07-12T18:35:45.146Z,59.63
2018-07-12T18:38:13.955Z,61.01
2018-07-12T18:40:42.771Z,60.91
2018-07-12T18:43:11.604Z,60.76
2018-07-12T18:45:46.348Z,61.76
2018-07-12T18:48:15.161Z,62.43
2018-07-12T18:50:44.078Z,62.83
2018-07-12T18:53:12.877Z,64.25
2018-07-12T18:55:41.732Z,63.99
2018-07-12T18:58:10.521Z,65.49
2018-07-12T19:00:39.432Z,66.99
2018-07-12T19:03:08.284Z,68.26
2018-07-12T19:05:37.090Z,69.07
2018-07-12T19:08:05.969Z,69.85
2018-07-12T19:10:35.899Z,70.20
2018-07-12T19:13:04.934Z,70.95
2018-07-12T19:15:33.786Z,71.06
2018-07-12T19:18:02.643Z,71.64
2018-07-12T19:20:31.444Z,71.81
2018-07-12T19:23:00.354Z,72.07
2018-07-12T19:25:29.190Z,72.28
2018-07-12T19:27:58.023Z,72.53
2018-07-12T19:30:26.883Z,72.33
2018-07-12T19:32:55.690Z,73.51
2018-07-12T19:35:24.732Z,73.73
2018-07-12T19:37:53.390Z,73.77
2018-07-12T19:40:22.356Z,74.37
2018-07-12T19:42:51.259Z,74.46
2018-07-12T19:45:26.100Z,75.39
2018-07-12T19:47:54.927Z,75.80
2018-07-12T19:50:23.841Z,76.53
2018-07-12T19:52:52.705Z,76.33
2018-07-12T19:55:21.393Z,76.71
2018-07-12T19:57:50.084Z,77.59
2018-07-12T20:00:19.362Z,77.81
2018-07-12T20:02:48.228Z,77.90
2018-07-12T20:05:17.092Z,78.47
2018-07-12T20:07:45.863Z,79.28
2018-07-12T20:10:14.631Z,78.32
2018-07-12T20:12:43.378Z,78.67
2018-07-12T20:15:12.311Z,78.20
2018-07-12T20:17:41.095Z,79.12
2018-07-12T20:20:09.955Z,78.76
2018-07-12T20:22:38.748Z,78.48
2018-07-12T20:25:07.624Z,78.88
2018-07-12T20:27:36.486Z,78.62
2018-07-12T20:30:05.713Z,78.24
2018-07-12T20:32:34.544Z,78.59
2018-07-12T20:35:03.403Z,79.24
2018-07-12T20:37:32.256Z,79.85
2018-07-12T20:40:01.190Z,80.36
2018-07-12T20:42:30.016Z,81.52
2018-07-12T20:44:58.851Z,80.57
2018-07-12T20:47:27.964Z,81.48
2018-07-12T20:49:56.747Z,81.21
2018-07-12T20:52:25.675Z,81.11
2018-07-12T20:54:54.543Z,81.07
2018-07-12T20:57:23.671Z,81.18
2018-07-12T20:59:52.519Z,81.17
2018-07-12T21:02:21.371Z,80.88
2018-07-12T21:04:50.523Z,81.23
2018-07-12T21:07:19.939Z,81.18
2018-07-12T21:09:48.802Z,81.34
2018-07-12T21:12:17.613Z,80.64
2018-07-12T21:14:46.619Z,80.97
2018-07-12T21:17:15.528Z,81.01
2018-07-12T21:19:44.293Z,81.73
2018-07-12T21:22:13.172Z,81.30
2018-07-12T21:24:41.985Z,80.96
2018-07-12T21:27:10.831Z,80.71
2018-07-12T21:29:39.745Z,80.35
2018-07-12T21:32:08.677Z,80.76
2018-07-12T21:34:37.490Z,80.32
2018-07-12T21:37:06.365Z,81.29
2018-07-12T21:39:35.237Z,80.24
2018-07-12T21:42:04.101Z,79.59
2018-07-12T21:44:32.969Z,79.73
2018-07-12T21:47:01.751Z,79.95
2018-07-12T21:49:30.567Z,79.84
2018-07-12T21:51:59.478Z,80.81
2018-07-12T21:54:28.353Z,79.31
2018-07-12T21:56:57.152Z,79.39
2018-07-12T21:59:26.016Z,80.08
2018-07-12T22:01:54.928Z,80.26
2018-07-12T22:04:23.805Z,79.71
2018-07-12T22:07:24.726Z,79.81
2018-07-12T22:09:53.557Z,80.87
2018-07-12T22:12:22.351Z,79.56
2018-07-12T22:14:51.187Z,80.62
2018-07-12T22:17:20.069Z,80.21
2018-07-12T22:19:48.884Z,80.58
2018-07-12T22:22:17.541Z,80.76
2018-07-12T22:24:46.587Z,80.56
2018-07-12T22:27:15.394Z,80.33
2018-07-12T22:29:44.226Z,79.97
2018-07-12T22:32:13.264Z,79.90
2018-07-12T22:34:42.216Z,80.80
2018-07-12T22:37:11.011Z,80.24
2018-07-12T22:39:39.799Z,79.89
2018-07-12T22:42:08.662Z,80.08
2018-07-12T22:44:37.423Z,80.32
2018-07-12T22:47:06.264Z,79.96
2018-07-12T22:49:35.017Z,79.68
2018-07-12T22:52:03.947Z,80.20
2018-07-12T22:54:33.132Z,79.89
2018-07-12T22:57:01.990Z,80.35
2018-07-12T22:59:30.825Z,80.48
2018-07-12T23:01:59.715Z,80.07
2018-07-12T23:04:28.524Z,79.96
2018-07-12T23:06:57.561Z,79.94
2018-07-12T23:09:26.236Z,80.49
2018-07-12T23:11:55.059Z,80.55
2018-07-12T23:14:24.068Z,80.43
2018-07-12T23:16:53.154Z,80.58
2018-07-12T23:19:22.026Z,79.60
2018-07-12T23:21:51.052Z,79.96
2018-07-12T23:24:19.855Z,79.71
2018-07-12T23:26:48.722Z,79.88
2018-07-12T23:29:17.484Z,80.48
2018-07-12T23:31:46.388Z,80.11
2018-07-12T23:34:15.202Z,80.42
2018-07-12T23:36:44.121Z,81.00
2018-07-12T23:39:13.400Z,81.01
2018-07-12T23:41:42.264Z,80.61
2018-07-12T23:44:10.966Z,81.02
2018-07-12T23:46:39.763Z,81.40
2018-07-12T23:49:08.608Z,80.76
2018-07-12T23:51:37.475Z,80.27
2018-07-12T23:54:06.581Z,80.70
2018-07-12T23:56:35.455Z,80.07
2018-07-12T23:59:04.539Z,80.65
